Time;durP1;ratioP1;P1;durP2;ratioP2;P2;SDS_P1;SDS_P2;PMS_P1;PMS_P2;Temp;Humidity;BMP_temperature;BMP_pressure;BME280_temperature;BME280_humidity;BME280_pressure;Samples;Min_cycle;Max_cycle;Signal;HPM_P1;HPM_P2
2024/01/25 00:00:57;;;;;;;35.47;6.37;;;;;;;8.61;81.17;102366.00;4958092;29;20201;-71
2024/01/25 00:03:24;;;;;;;30.80;6.50;;;;;;;8.57;81.21;102364.47;4957365;28;20187;-71
2024/01/25 00:05:50;;;;;;;38.33;6.73;;;;;;;8.60;81.40;102369.59;4957517;28;20234;-71
2024/01/25 00:08:17;;;;;;;43.80;7.30;;;;;;;8.59;81.00;102367.88;4957638;28;20217;-71
2024/01/25 00:10:43;;;;;;;43.63;6.90;;;;;;;8.56;81.08;102362.75;4957900;28;20741;-72
2024/01/25 00:13:10;;;;;;;40.53;7.17;;;;;;;8.58;81.29;102376.81;4957614;28;20202;-72
2024/01/25 00:15:36;;;;;;;32.93;5.93;;;;;;;8.58;81.32;102374.16;4958071;28;20237;-72
2024/01/25 00:18:03;;;;;;;30.97;5.90;;;;;;;8.58;80.99;102379.50;4957770;28;20224;-71
2024/01/25 00:20:29;;;;;;;37.20;7.37;;;;;;;8.58;81.03;102379.50;4957726;28;20277;-71
2024/01/25 00:22:56;;;;;;;25.23;5.67;;;;;;;8.54;81.31;102372.66;4957356;28;20605;-71
2024/01/25 00:25:22;;;;;;;42.17;7.93;;;;;;;8.53;81.61;102370.97;4957642;28;20203;-71
2024/01/25 00:27:49;;;;;;;50.40;8.07;;;;;;;8.52;81.65;102377.22;4957453;28;20217;-71
2024/01/25 00:30:15;;;;;;;39.00;7.37;;;;;;;8.40;81.98;102375.34;4958004;28;20535;-71
2024/01/25 00:32:42;;;;;;;32.23;6.90;;;;;;;8.38;82.03;102377.25;4957277;28;20187;-72
2024/01/25 00:35:10;;;;;;;26.77;6.27;;;;;;;8.40;82.13;102380.69;4957212;28;20206;-72
2024/01/25 00:37:37;;;;;;;38.00;7.43;;;;;;;8.35;82.30;102380.13;4957156;28;20301;-71
2024/01/25 00:40:04;;;;;;;34.67;6.70;;;;;;;8.35;82.40;102372.97;4956008;29;20182;-71
2024/01/25 00:42:33;;;;;;;33.77;7.00;;;;;;;8.29;82.69;102368.03;4957079;29;20241;-71
2024/01/25 00:44:59;;;;;;;45.07;8.33;;;;;;;8.33;82.64;102376.69;4956984;28;20577;-71
2024/01/25 00:47:26;;;;;;;31.80;6.60;;;;;;;8.31;82.58;102378.59;4957475;28;20210;-71
2024/01/25 00:49:53;;;;;;;31.20;5.97;;;;;;;8.25;82.97;102382.47;4957188;28;20567;-71
2024/01/25 00:52:20;;;;;;;46.27;6.70;;;;;;;8.18;83.27;102379.34;4957184;28;20670;-71
2024/01/25 00:54:47;;;;;;;41.67;7.53;;;;;;;8.22;82.76;102377.34;4956846;28;20194;-71
2024/01/25 00:57:13;;;;;;;35.37;7.20;;;;;;;8.24;83.00;102384.25;4957230;28;20309;-71
2024/01/25 00:59:40;;;;;;;39.53;7.40;;;;;;;8.14;83.41;102377.81;4957057;28;20186;-71
2024/01/25 01:02:11;;;;;;;56.17;7.97;;;;;;;8.09;83.59;102382.56;4957260;28;20194;-71
2024/01/25 01:04:39;;;;;;;31.30;6.43;;;;;;;8.05;83.93;102382.84;4956665;29;20286;-71
2024/01/25 01:07:15;;;;;;;44.03;6.97;;;;;;;7.89;84.54;102385.63;4956778;28;20229;-71
2024/01/25 01:09:41;;;;;;;41.23;6.70;;;;;;;7.93;84.08;102384.47;4956594;28;20539;-71
2024/01/25 01:12:08;;;;;;;51.37;7.23;;;;;;;7.85;84.60;102378.72;4956807;28;20273;-71
2024/01/25 01:14:34;;;;;;;37.60;6.73;;;;;;;7.91;84.39;102385.50;4956705;28;20234;-71
2024/01/25 01:17:01;;;;;;;49.80;7.70;;;;;;;7.86;84.93;102393.75;4955173;28;20218;-71
2024/01/25 01:19:27;;;;;;;35.10;6.17;;;;;;;7.73;84.96;102390.13;4956407;28;20186;-72
2024/01/25 01:21:54;;;;;;;37.83;6.90;;;;;;;7.73;85.36;102390.13;4956415;28;20222;-72
2024/01/25 01:24:20;;;;;;;31.73;7.47;;;;;;;7.80;85.03;102394.16;4956404;28;20210;-71
2024/01/25 01:26:46;;;;;;;66.80;8.63;;;;;;;7.73;85.03;102388.31;4956213;28;20202;-71
2024/01/25 01:29:13;;;;;;;38.20;6.70;;;;;;;7.76;85.41;102395.28;4956238;28;20195;-71
2024/01/25 01:31:39;;;;;;;36.67;5.80;;;;;;;7.67;85.72;102395.84;4956281;28;20594;-71
2024/01/25 01:34:06;;;;;;;31.13;6.87;;;;;;;7.73;85.91;102395.44;4956888;28;20195;-71
2024/01/25 01:36:32;;;;;;;41.47;6.87;;;;;;;7.65;86.11;102393.25;4956007;28;20197;-71
2024/01/25 01:38:59;;;;;;;50.97;8.27;;;;;;;7.61;86.41;102398.84;4956587;28;20249;-71
2024/01/25 01:41:26;;;;;;;44.77;8.30;;;;;;;7.67;86.17;102403.81;4956253;28;20191;-71
2024/01/25 01:43:53;;;;;;;35.43;6.60;;;;;;;7.69;86.20;102408.09;4956494;28;20198;-71
2024/01/25 01:46:39;;;;;;;44.63;7.00;;;;;;;7.69;85.87;102408.09;4955859;28;20214;-71
2024/01/25 01:49:13;;;;;;;33.57;6.60;;;;;;;7.68;85.81;102405.53;4956172;28;20582;-71
2024/01/25 01:51:44;;;;;;;38.33;7.27;;;;;;;7.70;85.95;102414.28;4956138;28;20205;-71
2024/01/25 01:54:11;;;;;;;40.97;8.07;;;;;;;7.71;85.86;102416.00;4956100;28;20179;-71
2024/01/25 01:56:39;;;;;;;51.40;6.13;;;;;;;7.71;85.75;102422.19;4956166;28;20203;-71
2024/01/25 01:59:10;;;;;;;29.87;7.37;;;;;;;7.66;85.75;102415.41;4955700;28;20198;-71
2024/01/25 02:01:37;;;;;;;38.47;6.43;;;;;;;7.69;86.18;102420.53;4955972;28;20687;-71
2024/01/25 02:04:04;;;;;;;37.77;7.70;;;;;;;7.67;85.83;102418.00;4955912;28;20175;-71
2024/01/25 02:06:31;;;;;;;46.97;7.47;;;;;;;7.69;85.92;102417.88;4955456;28;20244;-70
2024/01/25 02:08:58;;;;;;;38.73;7.47;;;;;;;7.73;85.44;102422.06;4955824;28;20192;-71
2024/01/25 02:11:26;;;;;;;54.00;8.97;;;;;;;7.64;85.71;102426.13;4956069;28;20191;-71
2024/01/25 02:13:52;;;;;;;31.63;7.60;;;;;;;7.67;85.47;102433.09;4955507;28;20186;-71
2024/01/25 02:16:19;;;;;;;37.17;7.90;;;;;;;7.62;85.76;102433.38;4955488;28;20194;-71
2024/01/25 02:18:47;;;;;;;32.97;6.40;;;;;;;7.58;85.92;102441.63;4955737;28;20208;-71
2024/01/25 02:21:15;;;;;;;33.40;7.93;;;;;;;7.61;85.83;102439.63;4955649;28;20230;-71
2024/01/25 02:23:42;;;;;;;34.37;6.77;;;;;;;7.58;85.48;102436.31;4955352;28;20285;-71
2024/01/25 02:26:08;;;;;;;39.27;7.83;;;;;;;7.47;85.95;102430.78;4955030;28;20620;-71
2024/01/25 02:28:35;;;;;;;38.67;7.73;;;;;;;7.35;86.00;102430.53;4954950;28;20218;-71
2024/01/25 02:31:02;;;;;;;29.93;6.77;;;;;;;7.38;86.29;102441.94;4956121;28;20547;-71
2024/01/25 02:33:29;;;;;;;34.40;6.73;;;;;;;7.32;86.46;102440.50;4955262;28;20204;-71
2024/01/25 02:35:57;;;;;;;49.93;8.03;;;;;;;7.23;86.27;102441.88;4955506;28;20245;-71
2024/01/25 02:38:24;;;;;;;34.43;7.10;;;;;;;7.21;86.17;102440.25;4955129;28;20218;-71
2024/01/25 02:40:50;;;;;;;33.33;6.73;;;;;;;7.23;86.39;102444.53;4955731;28;20237;-71
2024/01/25 02:43:17;;;;;;;41.50;6.57;;;;;;;7.23;86.39;102444.53;4955151;28;20187;-71
2024/01/25 02:45:43;;;;;;;39.07;7.33;;;;;;;7.11;86.67;102442.59;4955643;28;20225;-71
2024/01/25 02:48:10;;;;;;;40.60;6.30;;;;;;;7.14;86.29;102437.09;4955130;28;20211;-71
2024/01/25 02:50:37;;;;;;;33.20;6.30;;;;;;;7.05;86.59;102444.72;4955554;28;20190;-71
2024/01/25 02:53:05;;;;;;;30.17;6.73;;;;;;;7.04;87.12;102443.88;4955038;29;20203;-71
2024/01/25 02:55:31;;;;;;;49.57;6.33;;;;;;;6.96;87.12;102447.91;4955028;28;20650;-71
2024/01/25 02:57:57;;;;;;;32.63;6.83;;;;;;;7.01;87.37;102448.50;4954977;28;20217;-71
2024/01/25 03:00:24;;;;;;;25.93;5.77;;;;;;;6.96;87.29;102448.75;4955537;28;20205;-71
2024/01/25 03:02:50;;;;;;;23.13;5.73;;;;;;;6.97;87.17;102466.44;4955275;28;20187;-71
2024/01/25 03:05:17;;;;;;;25.63;6.30;;;;;;;6.89;87.54;102474.84;4955145;28;20637;-71
2024/01/25 03:07:43;;;;;;;45.30;7.27;;;;;;;6.85;87.78;102465.31;4954894;28;20269;-71
2024/01/25 03:10:10;;;;;;;32.43;6.50;;;;;;;6.85;87.82;102473.28;4954911;28;20230;-71
2024/01/25 03:12:36;;;;;;;42.73;7.37;;;;;;;6.76;87.91;102471.13;4954902;28;20228;-71
2024/01/25 03:15:04;;;;;;;46.47;7.10;;;;;;;6.72;88.04;102479.38;4954949;28;20531;-71
2024/01/25 03:17:32;;;;;;;36.47;7.03;;;;;;;6.64;88.55;102478.94;4954836;28;20231;-71
2024/01/25 03:19:59;;;;;;;33.17;6.53;;;;;;;6.67;88.49;102494.69;4955085;28;20277;-71
2024/01/25 03:22:25;;;;;;;38.10;7.37;;;;;;;6.71;88.02;102504.22;4955086;28;20599;-71
2024/01/25 03:24:52;;;;;;;36.07;7.10;;;;;;;6.64;88.36;102494.88;4954878;28;20203;-71
2024/01/25 03:27:18;;;;;;;37.00;7.60;;;;;;;6.59;88.36;102495.13;4955082;28;20625;-71
2024/01/25 03:29:45;;;;;;;25.77;6.17;;;;;;;6.54;88.72;102491.84;4955011;28;20194;-71
2024/01/25 03:32:12;;;;;;;32.03;7.00;;;;;;;6.54;89.40;102498.94;4954728;28;20191;-71
2024/01/25 03:34:38;;;;;;;46.43;7.10;;;;;;;6.49;88.87;102495.72;4954710;28;20191;-71
2024/01/25 03:37:05;;;;;;;23.13;5.37;;;;;;;6.54;88.73;102488.31;4954864;28;20206;-71
2024/01/25 03:39:31;;;;;;;59.50;7.00;;;;;;;6.48;88.94;102496.66;4957592;28;20198;-71
2024/01/25 03:41:58;;;;;;;33.60;7.40;;;;;;;6.48;89.16;102489.53;4958434;28;20198;-71
2024/01/25 03:44:24;;;;;;;61.83;7.13;;;;;;;6.45;89.27;102488.84;4958156;28;20249;-71
2024/01/25 03:46:51;;;;;;;36.00;7.57;;;;;;;6.47;88.91;102487.81;4958253;28;20226;-71
2024/01/25 03:49:18;;;;;;;48.23;7.87;;;;;;;6.46;89.21;102498.50;4958410;28;20179;-71
2024/01/25 03:51:45;;;;;;;43.83;7.63;;;;;;;6.43;89.19;102503.06;4958079;28;20673;-71
2024/01/25 03:54:12;;;;;;;35.50;7.03;;;;;;;6.46;88.65;102496.72;4958538;28;20185;-70
2024/01/25 03:56:39;;;;;;;25.40;6.63;;;;;;;6.40;89.25;102497.06;4958217;28;20627;-71
2024/01/25 03:59:10;;;;;;;33.90;6.60;;;;;;;6.38;89.02;102497.13;4958240;28;20179;-70
2024/01/25 04:01:49;;;;;;;29.23;6.80;;;;;;;6.24;88.91;102497.00;4958181;28;20182;-71
2024/01/25 04:04:16;;;;;;;39.70;6.50;;;;;;;6.28;89.51;102489.75;4958127;28;20264;-71
2024/01/25 04:06:45;;;;;;;35.40;6.43;;;;;;;6.17;89.11;102497.41;4957904;28;20222;-70
2024/01/25 04:09:13;;;;;;;33.40;5.67;;;;;;;6.20;89.33;102495.44;4958211;28;20191;-72
2024/01/25 04:11:39;;;;;;;36.53;6.93;;;;;;;6.11;89.38;102501.22;4957976;28;20562;-72
2024/01/25 04:14:05;;;;;;;30.40;6.47;;;;;;;6.15;89.81;102508.13;4957944;28;20189;-71
2024/01/25 04:16:33;;;;;;;32.63;6.33;;;;;;;6.09;89.96;102502.25;4957501;28;20205;-70
2024/01/25 04:18:59;;;;;;;46.57;5.97;;;;;;;6.08;89.76;102506.69;4957830;28;20191;-70
2024/01/25 04:21:27;;;;;;;30.90;6.50;;;;;;;6.03;90.18;102513.16;4957775;28;20199;-71
2024/01/25 04:23:54;;;;;;;35.53;6.13;;;;;;;6.09;89.80;102513.72;4957809;28;20230;-71
2024/01/25 04:26:20;;;;;;;25.33;5.83;;;;;;;6.11;89.86;102517.16;4957675;28;20298;-71
2024/01/25 04:28:47;;;;;;;23.53;6.70;;;;;;;5.97;89.58;102524.97;4957989;28;20195;-70
2024/01/25 04:31:13;;;;;;;27.00;6.87;;;;;;;5.87;89.98;102534.34;4957669;28;20270;-71
2024/01/25 04:33:40;;;;;;;41.83;6.70;;;;;;;5.91;89.87;102531.44;4957781;28;20194;-71
2024/01/25 04:36:12;;;;;;;29.10;6.03;;;;;;;5.86;90.32;102532.56;4957827;28;20207;-71
2024/01/25 04:38:38;;;;;;;45.57;6.80;;;;;;;5.87;90.80;102532.53;4957417;28;20229;-70
2024/01/25 04:41:05;;;;;;;44.43;6.00;;;;;;;5.81;90.07;102531.97;4957400;28;20205;-70
2024/01/25 04:43:36;;;;;;;43.80;7.63;;;;;;;5.80;90.70;102522.28;4957368;28;20647;-70
2024/01/25 04:46:03;;;;;;;39.33;8.10;;;;;;;5.82;90.25;102525.72;4957276;28;20211;-71
2024/01/25 04:48:30;;;;;;;28.27;6.77;;;;;;;5.73;90.28;102526.19;4957248;28;20207;-70
2024/01/25 04:50:58;;;;;;;27.37;6.77;;;;;;;5.71;90.69;102533.34;4956672;28;20622;-71
2024/01/25 04:53:25;;;;;;;28.97;5.43;;;;;;;5.64;91.18;102534.59;4956950;28;20670;-71
2024/01/25 04:55:53;;;;;;;35.07;6.80;;;;;;;5.56;91.09;102534.13;4956821;28;20659;-71
2024/01/25 04:58:20;;;;;;;29.27;5.93;;;;;;;5.46;92.21;102539.88;4956837;28;20760;-71
2024/01/25 05:00:47;;;;;;;37.57;7.10;;;;;;;5.56;92.00;102529.66;4956790;28;20196;-71
2024/01/25 05:03:13;;;;;;;49.87;7.03;;;;;;;5.56;91.52;102528.81;4956767;28;20285;-71
2024/01/25 05:05:40;;;;;;;40.23;6.47;;;;;;;5.50;92.01;102519.38;4956639;28;20211;-71
2024/01/25 05:08:06;;;;;;;28.20;5.57;;;;;;;5.46;91.87;102523.97;4956721;28;20705;-71
2024/01/25 05:10:33;;;;;;;28.33;6.43;;;;;;;5.45;92.20;102521.38;4956655;28;20186;-71
2024/01/25 05:13:00;;;;;;;29.00;6.30;;;;;;;5.34;93.20;102529.00;4955425;29;20203;-71
2024/01/25 05:15:26;;;;;;;34.10;6.63;;;;;;;5.36;92.61;102527.97;4956510;28;20187;-71
2024/01/25 05:17:52;;;;;;;30.20;7.37;;;;;;;5.43;92.46;102528.56;4956688;28;20222;-71
2024/01/25 05:20:19;;;;;;;55.27;8.00;;;;;;;5.28;92.89;102530.16;4956471;28;20286;-71
2024/01/25 05:22:46;;;;;;;34.90;6.00;;;;;;;5.46;92.74;102525.75;4956412;28;20190;-71
2024/01/25 05:25:13;;;;;;;35.73;7.63;;;;;;;5.43;92.05;102523.25;4956665;28;20172;-72
2024/01/25 05:27:39;;;;;;;49.00;7.13;;;;;;;5.37;91.98;102535.00;4956371;28;20269;-71
2024/01/25 05:30:07;;;;;;;35.20;6.37;;;;;;;5.17;93.41;102527.16;4956224;28;20197;-71
2024/01/25 05:32:33;;;;;;;27.47;6.23;;;;;;;5.28;92.62;102530.16;4956249;28;20258;-71
2024/01/25 05:35:00;;;;;;;38.30;6.53;;;;;;;5.23;92.77;102526.00;4956424;28;20598;-71
2024/01/25 05:37:26;;;;;;;39.83;7.50;;;;;;;5.27;92.29;102525.78;4955002;28;20221;-68
2024/01/25 05:39:53;;;;;;;41.07;7.07;;;;;;;5.07;93.48;102528.53;4956343;28;20253;-68
2024/01/25 05:42:19;;;;;;;38.87;7.50;;;;;;;5.00;93.69;102535.06;4955983;28;20186;-68
2024/01/25 05:44:46;;;;;;;39.53;8.20;;;;;;;5.03;93.28;102525.16;4956474;28;20643;-68
2024/01/25 05:47:12;;;;;;;28.30;6.87;;;;;;;5.11;93.34;102530.09;4956037;28;20749;-68
2024/01/25 05:49:40;;;;;;;39.27;8.37;;;;;;;5.10;93.46;102531.00;4955901;28;20237;-68
2024/01/25 05:52:06;;;;;;;48.20;8.33;;;;;;;5.07;93.89;102528.53;4956406;28;20281;-68
2024/01/25 05:54:33;;;;;;;36.47;6.83;;;;;;;5.16;93.80;102535.19;4956069;28;20563;-67
2024/01/25 05:56:59;;;;;;;31.73;7.07;;;;;;;5.12;93.45;102533.59;4955605;28;20694;-68
2024/01/25 05:59:26;;;;;;;45.53;7.97;;;;;;;5.10;93.64;102546.91;4955719;28;20186;-68
2024/01/25 06:01:52;;;;;;;31.27;6.93;;;;;;;5.02;93.85;102543.78;4955350;28;20757;-67
2024/01/25 06:04:19;;;;;;;41.43;7.60;;;;;;;5.02;93.63;102544.63;4955612;28;20224;-67
2024/01/25 06:06:45;;;;;;;32.53;7.37;;;;;;;5.04;93.46;102548.09;4955731;28;20223;-68
2024/01/25 06:09:14;;;;;;;38.10;9.07;;;;;;;4.94;93.66;102536.19;4956115;28;20190;-68
2024/01/25 06:11:44;;;;;;;33.37;8.40;;;;;;;5.01;93.44;102547.34;4955637;28;20258;-68
2024/01/25 06:14:11;;;;;;;30.47;6.97;;;;;;;4.96;93.32;102539.63;4955749;29;20195;-68
2024/01/25 06:16:38;;;;;;;43.43;8.33;;;;;;;4.90;93.51;102547.00;4955692;28;20183;-68
2024/01/25 06:19:04;;;;;;;37.67;8.07;;;;;;;4.89;93.32;102542.63;4955470;28;20187;-68
2024/01/25 06:21:31;;;;;;;35.90;8.17;;;;;;;4.80;93.19;102541.25;4955932;28;20199;-68
2024/01/25 06:23:57;;;;;;;48.10;8.03;;;;;;;4.64;94.10;102542.88;4955188;28;20230;-68
2024/01/25 06:26:24;;;;;;;54.53;9.00;;;;;;;4.74;94.63;102549.50;4955218;28;20681;-68
2024/01/25 06:28:50;;;;;;;36.57;7.43;;;;;;;4.67;94.76;102555.97;4955321;28;20241;-68
2024/01/25 06:31:17;;;;;;;30.40;7.43;;;;;;;4.70;94.97;102549.72;4955869;28;20201;-68
2024/01/25 06:33:46;;;;;;;48.97;9.13;;;;;;;4.75;94.59;102550.38;4955478;29;20197;-68
2024/01/25 06:36:16;;;;;;;62.23;7.60;;;;;;;4.70;94.79;102549.72;4955824;28;20178;-68
2024/01/25 06:38:43;;;;;;;33.70;8.47;;;;;;;4.73;94.35;102546.91;4955127;28;20209;-68
2024/01/25 06:41:09;;;;;;;42.63;8.60;;;;;;;4.78;94.42;102555.50;4955820;28;20562;-68
2024/01/25 06:43:35;;;;;;;32.87;8.00;;;;;;;4.73;94.27;102560.16;4955067;28;20194;-68
2024/01/25 06:46:02;;;;;;;49.13;8.10;;;;;;;4.68;94.80;102556.84;4955450;28;20215;-68
2024/01/25 06:48:29;;;;;;;48.73;8.33;;;;;;;4.64;94.89;102565.84;4954753;28;20221;-68
2024/01/25 06:50:55;;;;;;;39.40;8.13;;;;;;;4.53;95.09;102569.00;4955510;28;20198;-68
2024/01/25 06:53:22;;;;;;;36.37;7.83;;;;;;;4.50;94.80;102571.75;4954229;29;20187;-68
2024/01/25 06:55:48;;;;;;;42.80;8.40;;;;;;;4.48;95.34;102576.28;4955362;28;20175;-68
2024/01/25 06:58:15;;;;;;;32.13;7.80;;;;;;;4.58;95.94;102585.56;4956028;28;20535;-68
2024/01/25 07:00:44;;;;;;;46.07;9.63;;;;;;;4.54;95.46;102582.16;4955197;28;20218;-67
2024/01/25 07:03:11;;;;;;;37.53;8.77;;;;;;;4.48;95.99;102587.75;4954951;28;20194;-67
2024/01/25 07:05:38;;;;;;;45.07;8.63;;;;;;;4.52;95.84;102586.69;4954928;28;20196;-67
2024/01/25 07:08:05;;;;;;;38.03;8.67;;;;;;;4.48;96.07;102590.38;4954818;28;20216;-68
2024/01/25 07:10:31;;;;;;;35.57;8.63;;;;;;;4.44;96.14;102590.59;4955177;28;20189;-68
2024/01/25 07:12:58;;;;;;;44.57;10.27;;;;;;;4.50;96.34;102590.31;4955873;28;20187;-68
2024/01/25 07:15:24;;;;;;;32.77;9.07;;;;;;;4.52;95.55;102591.09;4958637;28;20194;-68
2024/01/25 07:17:51;;;;;;;50.37;10.80;;;;;;;4.51;95.79;102594.69;4958674;28;20206;-68
2024/01/25 07:20:17;;;;;;;47.37;9.37;;;;;;;4.56;96.45;102601.50;4958600;29;20239;-68
2024/01/25 07:22:47;;;;;;;49.73;10.70;;;;;;;4.49;96.57;102599.19;4958735;28;20602;-68
2024/01/25 07:25:14;;;;;;;40.53;9.77;;;;;;;4.51;96.27;102598.19;4958790;28;20186;-68
2024/01/25 07:27:45;;;;;;;39.60;9.53;;;;;;;4.40;96.62;102603.09;4958576;28;20633;-68
2024/01/25 07:30:15;;;;;;;58.67;11.57;;;;;;;4.51;97.23;102597.31;4958985;28;20171;-68
2024/01/25 07:32:42;;;;;;;37.17;11.47;;;;;;;4.59;96.99;102603.16;4958947;28;20190;-68
2024/01/25 07:35:12;;;;;;;49.97;12.57;;;;;;;4.69;96.71;102608.91;4958259;28;20202;-68
2024/01/25 07:37:40;;;;;;;46.80;11.70;;;;;;;4.72;96.62;102608.75;4958675;28;20213;-68
2024/01/25 07:40:08;;;;;;;43.97;11.43;;;;;;;4.66;96.77;102604.63;4958822;29;20212;-68
2024/01/25 07:42:35;;;;;;;60.80;13.33;;;;;;;4.63;96.64;102598.56;4958199;29;20222;-68
2024/01/25 07:45:01;;;;;;;47.80;11.20;;;;;;;4.59;96.99;102598.72;4958142;28;20191;-68
2024/01/25 07:47:28;;;;;;;38.77;12.07;;;;;;;4.70;97.24;102606.19;4958542;28;20222;-67
2024/01/25 07:49:54;;;;;;;47.00;12.97;;;;;;;4.67;97.44;102608.97;4958069;29;20238;-67
2024/01/25 07:52:21;;;;;;;52.03;13.93;;;;;;;4.66;97.04;102611.69;4958022;28;20202;-67
2024/01/25 07:54:53;;;;;;;71.73;14.30;;;;;;;4.73;97.50;102621.09;4958590;28;20175;-67
2024/01/25 07:57:19;;;;;;;56.63;14.50;;;;;;;4.86;97.63;102631.09;4957892;28;20206;-68
2024/01/25 07:59:46;;;;;;;52.80;13.23;;;;;;;4.93;97.42;102623.69;4957891;29;20599;-68
2024/01/25 08:02:13;;;;;;;56.27;16.20;;;;;;;4.94;97.38;102633.38;4957961;28;20542;-68
2024/01/25 08:04:42;;;;;;;65.23;16.07;;;;;;;4.99;97.63;102626.09;4957772;28;20572;-68
2024/01/25 08:07:09;;;;;;;56.63;13.97;;;;;;;5.06;97.69;102630.16;4957689;28;20596;-68
2024/01/25 08:09:35;;;;;;;80.77;16.73;;;;;;;5.07;97.45;102629.25;4957763;29;20195;-68
2024/01/25 08:12:02;;;;;;;70.27;14.20;;;;;;;5.13;96.66;102631.63;4958270;29;20210;-68
2024/01/25 08:14:29;;;;;;;57.50;15.40;;;;;;;5.06;97.12;102628.38;4958173;28;20190;-68
2024/01/25 08:16:55;;;;;;;54.87;12.40;;;;;;;5.13;96.94;102636.06;4957518;28;20213;-68
2024/01/25 08:19:22;;;;;;;51.47;12.93;;;;;;;5.13;96.42;102631.63;4957545;29;20238;-68
2024/01/25 08:21:49;;;;;;;62.70;13.03;;;;;;;5.14;96.73;102638.63;4957769;28;20195;-68
2024/01/25 08:24:15;;;;;;;48.00;12.73;;;;;;;5.15;96.30;102634.19;4956685;28;20206;-68
2024/01/25 08:26:42;;;;;;;75.43;16.00;;;;;;;5.14;96.38;102640.41;4957161;28;20277;-68
2024/01/25 08:29:08;;;;;;;77.43;17.20;;;;;;;5.15;97.07;102635.06;4957346;29;20201;-68
2024/01/25 08:31:35;;;;;;;48.23;15.40;;;;;;;5.16;97.38;102638.56;4957919;28;20729;-68
2024/01/25 08:34:01;;;;;;;60.20;17.23;;;;;;;5.26;96.96;102638.06;4957219;29;20191;-68
2024/01/25 08:36:28;;;;;;;71.47;16.93;;;;;;;5.29;96.60;102645.91;4957744;28;20206;-68
2024/01/25 08:38:54;;;;;;;64.40;15.67;;;;;;;5.29;96.51;102640.59;4957176;29;20187;-68
2024/01/25 08:41:21;;;;;;;51.47;14.73;;;;;;;5.36;96.74;102638.50;4957177;28;20191;-68
2024/01/25 08:43:47;;;;;;;49.30;14.13;;;;;;;5.39;96.46;102636.56;4957329;28;20282;-68
2024/01/25 08:46:18;;;;;;;88.27;16.27;;;;;;;5.42;96.28;102639.09;4957271;29;20246;-68
2024/01/25 08:48:44;;;;;;;77.73;16.37;;;;;;;5.41;96.30;102629.41;4957007;28;20249;-68
2024/01/25 08:51:11;;;;;;;42.83;14.20;;;;;;;5.41;96.36;102631.19;4956991;29;20199;-68
2024/01/25 08:53:37;;;;;;;81.97;20.70;;;;;;;5.35;96.40;102627.03;4956912;28;20246;-68
2024/01/25 08:56:04;;;;;;;52.77;15.20;;;;;;;5.37;96.58;102625.19;4956868;28;20187;-68
2024/01/25 08:58:31;;;;;;;54.73;12.93;;;;;;;5.46;95.87;102623.91;4956795;28;20206;-68
2024/01/25 09:00:58;;;;;;;50.67;15.53;;;;;;;5.48;95.90;102638.78;4957051;29;20306;-68
2024/01/25 09:03:25;;;;;;;81.63;16.10;;;;;;;5.57;95.55;102631.34;4956777;28;20194;-68
2024/01/25 09:05:52;;;;;;;52.70;15.30;;;;;;;5.56;95.86;102625.16;4956764;28;20187;-68
2024/01/25 09:08:19;;;;;;;50.87;16.87;;;;;;;5.55;95.76;102633.22;4956501;28;20229;-68
2024/01/25 09:10:45;;;;;;;60.30;18.27;;;;;;;5.64;95.54;102622.16;4956805;29;20273;-68
2024/01/25 09:13:12;;;;;;;66.17;19.37;;;;;;;5.70;95.35;102621.84;4955344;28;20281;-68
2024/01/25 09:15:39;;;;;;;79.10;18.87;;;;;;;5.70;95.60;102622.72;4956800;28;20198;-68
2024/01/25 09:18:05;;;;;;;69.77;19.47;;;;;;;5.70;96.03;102627.16;4956403;28;20207;-68
2024/01/25 09:20:33;;;;;;;79.97;19.87;;;;;;;5.82;95.63;102629.22;4956999;28;20234;-68
2024/01/25 09:22:59;;;;;;;84.07;18.33;;;;;;;5.93;95.38;102629.59;4956735;29;20226;-68
2024/01/25 09:25:26;;;;;;;67.00;18.40;;;;;;;5.95;94.97;102628.59;4956686;28;20183;-68
2024/01/25 09:27:53;;;;;;;84.57;20.00;;;;;;;6.05;94.64;102629.00;4956426;28;20241;-68
2024/01/25 09:30:22;;;;;;;70.47;19.17;;;;;;;6.02;94.51;102636.25;4956283;29;20258;-68
2024/01/25 09:32:49;;;;;;;61.63;19.43;;;;;;;6.01;94.20;102632.75;4956253;28;20194;-68
2024/01/25 09:35:16;;;;;;;67.00;19.37;;;;;;;6.02;94.68;102653.06;4956404;28;20195;-68
2024/01/25 09:37:43;;;;;;;51.60;18.43;;;;;;;6.06;95.21;102648.44;4956031;28;20213;-68
2024/01/25 09:40:10;;;;;;;58.87;19.70;;;;;;;6.09;94.46;102656.25;4956102;29;20197;-68
2024/01/25 09:42:38;;;;;;;69.70;18.73;;;;;;;6.09;94.25;102648.28;4956269;28;20559;-68
2024/01/25 09:45:12;;;;;;;79.60;21.63;;;;;;;6.10;93.95;102666.81;4955980;28;20193;-68
2024/01/25 09:47:39;;;;;;;51.00;17.97;;;;;;;6.15;94.07;102667.44;4954581;28;20215;-68
2024/01/25 09:50:07;;;;;;;92.37;17.63;;;;;;;6.20;93.86;102657.44;4955869;28;20187;-68
2024/01/25 09:52:35;;;;;;;61.90;16.70;;;;;;;6.22;94.58;102641.44;4956471;29;20183;-68
2024/01/25 09:55:06;;;;;;;70.17;17.70;;;;;;;6.33;94.00;102637.28;4956081;29;20198;-68
2024/01/25 09:57:36;;;;;;;71.13;18.47;;;;;;;6.45;93.45;102640.28;4955993;28;20206;-68
2024/01/25 10:00:03;;;;;;;62.67;17.03;;;;;;;6.43;93.66;102645.66;4956037;29;20181;-68
2024/01/25 10:02:30;;;;;;;72.33;16.93;;;;;;;6.45;92.57;102656.22;4955720;28;20193;-68
2024/01/25 10:04:57;;;;;;;47.60;17.07;;;;;;;6.41;93.60;102666.13;4955665;28;20225;-68
2024/01/25 10:07:38;;;;;;;62.77;18.83;;;;;;;6.49;92.85;102674.59;4955620;28;20221;-68
2024/01/25 10:10:05;;;;;;;68.40;16.37;;;;;;;6.50;92.66;102676.28;4956133;29;20266;-68
2024/01/25 10:12:32;;;;;;;62.70;17.50;;;;;;;6.51;92.93;102674.50;4955550;29;20197;-68
2024/01/25 10:14:59;;;;;;;53.73;16.37;;;;;;;6.58;92.66;102668.78;4955803;28;20222;-68
2024/01/25 10:17:25;;;;;;;45.50;15.83;;;;;;;6.66;92.18;102669.25;4955923;28;20232;-68
2024/01/25 10:20:14;;;;;;;60.57;17.27;;;;;;;6.68;92.75;102664.72;4956026;29;20219;-68
2024/01/25 10:22:42;;;;;;;71.37;16.30;;;;;;;6.87;92.42;102659.31;4955292;29;20205;-68
2024/01/25 10:25:14;;;;;;;74.93;18.13;;;;;;;6.86;91.97;102665.56;4955899;28;20190;-68
2024/01/25 10:27:42;;;;;;;75.80;19.13;;;;;;;6.87;91.90;102668.13;4955357;28;20215;-68
2024/01/25 10:30:09;;;;;;;67.57;18.27;;;;;;;6.86;91.40;102663.78;4955307;29;20203;-68
2024/01/25 10:32:36;;;;;;;65.07;17.07;;;;;;;6.94;91.04;102676.66;4955537;28;20178;-68
2024/01/25 10:35:04;;;;;;;44.23;17.37;;;;;;;6.92;90.65;102669.72;4955532;28;20655;-68
2024/01/25 10:37:32;;;;;;;57.07;18.30;;;;;;;6.94;90.75;102668.69;4955163;28;20254;-68
2024/01/25 10:39:59;;;;;;;54.70;16.77;;;;;;;6.84;91.07;102662.13;4955467;29;20245;-68
2024/01/25 10:42:26;;;;;;;79.27;19.37;;;;;;;6.88;91.28;102655.69;4955729;28;20214;-68
2024/01/25 10:44:53;;;;;;;79.67;18.20;;;;;;;6.92;91.62;102640.47;4955216;28;20577;-68
2024/01/25 10:47:19;;;;;;;65.43;17.83;;;;;;;7.04;91.79;102638.00;4955263;28;20225;-68
2024/01/25 10:49:47;;;;;;;68.97;17.40;;;;;;;7.14;90.74;102628.56;4955137;29;20195;-68
2024/01/25 10:52:15;;;;;;;67.63;17.97;;;;;;;7.17;90.01;102624.91;4955101;28;20556;-68
2024/01/25 10:54:42;;;;;;;68.07;18.43;;;;;;;7.17;90.72;102633.72;4955369;28;20238;-68
2024/01/25 10:57:08;;;;;;;68.07;16.30;;;;;;;7.21;90.54;102634.44;4955155;28;20222;-68
2024/01/25 10:59:35;;;;;;;53.43;16.77;;;;;;;7.33;90.22;102621.31;4955514;29;20197;-68
2024/01/25 11:02:02;;;;;;;71.40;16.57;;;;;;;7.35;89.15;102611.44;4954993;29;20190;-68
2024/01/25 11:04:29;;;;;;;61.50;16.17;;;;;;;7.34;89.27;102599.06;4955202;28;20194;-68
2024/01/25 11:07:06;;;;;;;71.30;16.83;;;;;;;7.41;89.17;102604.06;4955228;28;20294;-68
2024/01/25 11:09:35;;;;;;;61.63;17.83;;;;;;;7.60;89.66;102604.75;4955399;28;20178;-68
2024/01/25 11:12:01;;;;;;;55.07;15.90;;;;;;;7.68;88.18;102602.53;4954927;28;20257;-68
2024/01/25 11:14:28;;;;;;;52.03;16.53;;;;;;;7.72;88.87;102596.91;4954906;28;20198;-68
2024/01/25 11:16:54;;;;;;;61.40;16.47;;;;;;;7.84;87.20;102592.72;4955196;28;20214;-68
2024/01/25 11:19:22;;;;;;;61.73;15.07;;;;;;;7.90;87.02;102597.66;4955415;29;20246;-69
2024/01/25 11:21:50;;;;;;;47.93;15.10;;;;;;;7.88;86.82;102601.38;4954874;28;20195;-68